createdAt,value
2023-04-27T00:00:39.497Z,3565.00
2023-04-27T00:01:39.533Z,3512.00
2023-04-27T00:02:39.567Z,3520.00
2023-04-27T00:03:39.605Z,3527.00
2023-04-27T00:04:39.690Z,3514.00
2023-04-27T00:05:39.770Z,3485.00
2023-04-27T00:06:39.458Z,3493.00
2023-04-27T00:07:39.442Z,3469.00
2023-04-27T00:08:39.456Z,3481.00
2023-04-27T00:09:39.416Z,3463.00
2023-04-27T00:10:39.418Z,3476.00
2023-04-27T00:11:39.410Z,3470.00
2023-04-27T00:12:39.424Z,3458.00
2023-04-27T00:13:39.404Z,3464.00
2023-04-27T00:14:39.398Z,3501.00
2023-04-27T00:15:39.563Z,3446.00
2023-04-27T00:16:39.424Z,3459.00
2023-04-27T00:17:39.401Z,3479.00
2023-04-27T00:18:39.368Z,3510.00
2023-04-27T00:19:39.354Z,3476.00
2023-04-27T00:20:39.340Z,3489.00
2023-04-27T00:21:39.349Z,3493.00
2023-04-27T00:22:39.351Z,3429.00
2023-04-27T00:23:39.325Z,3420.00
2023-04-27T00:24:39.338Z,3419.00
2023-04-27T00:25:39.311Z,3433.00
2023-04-27T00:26:39.334Z,3450.00
2023-04-27T00:27:39.302Z,3485.00
2023-04-27T00:28:39.302Z,3499.00
2023-04-27T00:29:39.294Z,3475.00
2023-04-27T00:30:39.285Z,3479.00
2023-04-27T00:31:39.341Z,3453.00
2023-04-27T00:32:39.372Z,3424.00
2023-04-27T00:33:39.261Z,3401.00
2023-04-27T00:34:39.261Z,3429.00
2023-04-27T00:35:39.275Z,3438.00
2023-04-27T00:36:39.224Z,3469.00
2023-04-27T00:37:39.236Z,3471.00
2023-04-27T00:38:39.217Z,3482.00
2023-04-27T00:39:39.209Z,3485.00
2023-04-27T00:40:39.192Z,3452.00
2023-04-27T00:41:39.184Z,3495.00
2023-04-27T00:42:39.175Z,3480.00
2023-04-27T00:43:39.188Z,3474.00
2023-04-27T00:44:39.907Z,3448.00
2023-04-27T00:45:39.192Z,3465.00
2023-04-27T00:46:39.146Z,3490.00
2023-04-27T00:47:39.165Z,3475.00
2023-04-27T00:48:39.120Z,3465.00
2023-04-27T00:49:39.127Z,3450.00
2023-04-27T00:50:39.126Z,3462.00
2023-04-27T00:51:39.133Z,3473.00
2023-04-27T00:52:39.106Z,3489.00
2023-04-27T00:53:39.137Z,3474.00
2023-04-27T00:54:39.094Z,3455.00
2023-04-27T00:55:39.132Z,3479.00
2023-04-27T00:56:39.077Z,3425.00
2023-04-27T00:57:39.142Z,3452.00
2023-04-27T00:58:39.072Z,3480.00
2023-04-27T00:59:39.102Z,3463.00
2023-04-27T01:00:39.071Z,3450.00
2023-04-27T01:01:39.241Z,3463.00
2023-04-27T01:02:39.322Z,3473.00
2023-04-27T01:03:39.246Z,3458.00
2023-04-27T01:04:39.111Z,3429.00
2023-04-27T01:05:39.048Z,3431.00
2023-04-27T01:06:39.005Z,3437.00
2023-04-27T01:07:39.024Z,3461.00
2023-04-27T01:08:38.999Z,3439.00
2023-04-27T01:09:38.994Z,3436.00
2023-04-27T01:10:38.990Z,3428.00
2023-04-27T01:11:38.994Z,3433.00
2023-04-27T01:12:38.981Z,3422.00
2023-04-27T01:13:38.969Z,3414.00
2023-04-27T01:14:38.951Z,3441.00
2023-04-27T01:15:38.965Z,3417.00
2023-04-27T01:16:39.009Z,3453.00
2023-04-27T01:17:38.976Z,3445.00
2023-04-27T01:18:38.917Z,3400.00
2023-04-27T01:19:38.908Z,3426.00
2023-04-27T01:20:39.130Z,3372.00
2023-04-27T01:21:38.910Z,3362.00
2023-04-27T01:22:38.905Z,3398.00
2023-04-27T01:23:38.901Z,3390.00
2023-04-27T01:24:38.884Z,3398.00
2023-04-27T01:25:38.899Z,3362.00
2023-04-27T01:26:38.884Z,3371.00
2023-04-27T01:27:38.860Z,3385.00
2023-04-27T01:28:38.866Z,3404.00
2023-04-27T01:29:38.858Z,3391.00
2023-04-27T01:30:38.843Z,3380.00
2023-04-27T01:31:38.988Z,3376.00
2023-04-27T01:32:38.920Z,3382.00
2023-04-27T01:33:38.805Z,3367.00
2023-04-27T01:34:38.823Z,3366.00
2023-04-27T01:35:38.811Z,3359.00
2023-04-27T01:36:38.824Z,3373.00
2023-04-27T01:37:38.811Z,3392.00
2023-04-27T01:38:38.775Z,3365.00
2023-04-27T01:39:38.778Z,3362.00
2023-04-27T01:40:38.796Z,3388.00
2023-04-27T01:41:38.789Z,3387.00
2023-04-27T01:42:38.764Z,3398.00
2023-04-27T01:43:38.777Z,3409.00
2023-04-27T01:44:38.744Z,3404.00
2023-04-27T01:45:38.728Z,3398.00
2023-04-27T01:46:38.822Z,3399.00
2023-04-27T01:47:38.753Z,3391.00
2023-04-27T01:48:38.700Z,3391.00
2023-04-27T01:49:38.716Z,3404.00
2023-04-27T01:50:38.714Z,3419.00
2023-04-27T01:51:38.702Z,3416.00
2023-04-27T01:52:38.700Z,3380.00
2023-04-27T01:53:38.678Z,3395.00
2023-04-27T01:54:38.672Z,3378.00
2023-04-27T01:55:38.690Z,3372.00
2023-04-27T01:56:38.642Z,3395.00
2023-04-27T01:57:38.631Z,3380.00
2023-04-27T01:58:38.637Z,3364.00
2023-04-27T01:59:38.622Z,3379.00
2023-04-27T02:00:38.610Z,3387.00
2023-04-27T02:01:38.699Z,3376.00
2023-04-27T02:02:38.724Z,3369.00
2023-04-27T02:03:38.759Z,3369.00
2023-04-27T02:04:38.796Z,3373.00
2023-04-27T02:05:38.703Z,3358.00
2023-04-27T02:06:38.591Z,3328.00
2023-04-27T02:07:38.605Z,3326.00
2023-04-27T02:08:38.586Z,3362.00
2023-04-27T02:09:38.581Z,3350.00
2023-04-27T02:10:38.571Z,3310.00
2023-04-27T02:11:38.591Z,3342.00
2023-04-27T02:12:38.528Z,3334.00
2023-04-27T02:13:38.547Z,3345.00
2023-04-27T02:14:38.545Z,3351.00
2023-04-27T02:15:38.522Z,3363.00
2023-04-27T02:16:38.602Z,3355.00
2023-04-27T02:17:38.561Z,3362.00
2023-04-27T02:18:38.603Z,3347.00
2023-04-27T02:19:38.500Z,3336.00
2023-04-27T02:20:38.470Z,3376.00
2023-04-27T02:21:38.473Z,3404.00
2023-04-27T02:22:38.541Z,3406.00
2023-04-27T02:23:38.512Z,3406.00
2023-04-27T02:24:38.463Z,3414.00
2023-04-27T02:25:38.468Z,3380.00
2023-04-27T02:26:38.423Z,3354.00
2023-04-27T02:27:38.420Z,3368.00
2023-04-27T02:28:38.430Z,3437.00
2023-04-27T02:29:38.462Z,3459.00
2023-04-27T02:30:38.421Z,3428.00
2023-04-27T02:31:38.469Z,3388.00
2023-04-27T02:32:38.468Z,3375.00
2023-04-27T02:33:38.434Z,3396.00
2023-04-27T02:34:38.460Z,3403.00
2023-04-27T02:35:38.490Z,3432.00
2023-04-27T02:36:38.483Z,3397.00
2023-04-27T02:37:38.466Z,3426.00
2023-04-27T02:38:38.468Z,3444.00
2023-04-27T02:39:38.516Z,3424.00
2023-04-27T02:40:38.522Z,3420.00
2023-04-27T02:41:38.496Z,3391.00
2023-04-27T02:42:38.507Z,3392.00
2023-04-27T02:43:38.513Z,3426.00
2023-04-27T02:44:38.512Z,3433.00
2023-04-27T02:45:38.533Z,3437.00
2023-04-27T02:46:38.616Z,3439.00
2023-04-27T02:47:38.581Z,3430.00
2023-04-27T02:48:38.539Z,3411.00
2023-04-27T02:49:38.592Z,3427.00
2023-04-27T02:50:38.540Z,3422.00
2023-04-27T02:51:38.573Z,3362.00
2023-04-27T02:52:38.556Z,3397.00
2023-04-27T02:53:38.569Z,3399.00
2023-04-27T02:54:38.581Z,3414.00
2023-04-27T02:55:38.595Z,3384.00
2023-04-27T02:56:38.609Z,3397.00
2023-04-27T02:57:38.606Z,3391.00
2023-04-27T02:58:38.599Z,3414.00
2023-04-27T02:59:38.616Z,3403.00
2023-04-27T03:00:38.611Z,3388.00
2023-04-27T03:01:38.755Z,3404.00
2023-04-27T03:02:38.764Z,3408.00
2023-04-27T03:03:38.736Z,3398.00
2023-04-27T03:04:38.901Z,3414.00
2023-04-27T03:05:38.640Z,3397.00
2023-04-27T03:06:38.654Z,3382.00
2023-04-27T03:07:38.662Z,3404.00
2023-04-27T03:08:38.662Z,3400.00
2023-04-27T03:09:38.664Z,3386.00
2023-04-27T03:10:38.681Z,3424.00
2023-04-27T03:11:38.689Z,3419.00
2023-04-27T03:12:38.686Z,3406.00
2023-04-27T03:13:38.672Z,3404.00
2023-04-27T03:14:38.681Z,3398.00
2023-04-27T03:15:38.701Z,3388.00
2023-04-27T03:16:38.710Z,3363.00
2023-04-27T03:17:38.758Z,3384.00
2023-04-27T03:18:38.720Z,3407.00
2023-04-27T03:19:38.717Z,3392.00
2023-04-27T03:20:38.737Z,3382.00
2023-04-27T03:21:38.732Z,3390.00
2023-04-27T03:22:38.736Z,3399.00
2023-04-27T03:23:38.784Z,3380.00
2023-04-27T03:24:38.744Z,3398.00
2023-04-27T03:25:38.767Z,3419.00
2023-04-27T03:26:38.766Z,3429.00
2023-04-27T03:27:38.793Z,3403.00
2023-04-27T03:28:38.791Z,3391.00
2023-04-27T03:29:38.801Z,3437.00
2023-04-27T03:30:38.796Z,3446.00
2023-04-27T03:31:38.867Z,3515.00
2023-04-27T03:32:38.844Z,3538.00
2023-04-27T03:33:38.826Z,3470.00
2023-04-27T03:34:38.832Z,3439.00
2023-04-27T03:35:38.853Z,3422.00
2023-04-27T03:36:38.849Z,3398.00
2023-04-27T03:37:38.865Z,3401.00
2023-04-27T03:38:38.871Z,3432.00
2023-04-27T03:39:38.876Z,3477.00
2023-04-27T03:40:38.896Z,3512.00
2023-04-27T03:41:38.910Z,3501.00
2023-04-27T03:42:38.898Z,3462.00
2023-04-27T03:43:38.911Z,3439.00
2023-04-27T03:44:38.942Z,3401.00
2023-04-27T03:45:38.998Z,3419.00
2023-04-27T03:46:38.943Z,3457.00
2023-04-27T03:47:39.018Z,3470.00
2023-04-27T03:48:38.961Z,3491.00
2023-04-27T03:49:38.965Z,3488.00
2023-04-27T03:50:38.997Z,3479.00
2023-04-27T03:51:39.009Z,3495.00
2023-04-27T03:52:39.033Z,3482.00
2023-04-27T03:53:39.011Z,3485.00
2023-04-27T03:54:39.067Z,3498.00
2023-04-27T03:55:39.068Z,3493.00
2023-04-27T03:56:39.063Z,3499.00
2023-04-27T03:57:39.056Z,3514.00
2023-04-27T03:58:39.076Z,3518.00
2023-04-27T03:59:39.082Z,3502.00
2023-04-27T04:00:39.089Z,3493.00
2023-04-27T04:01:39.102Z,3505.00
2023-04-27T04:02:39.214Z,3482.00
2023-04-27T04:03:39.172Z,3515.00
2023-04-27T04:04:39.380Z,3527.00
2023-04-27T04:05:39.128Z,3521.00
2023-04-27T04:06:39.156Z,3489.00
2023-04-27T04:07:39.186Z,3491.00
2023-04-27T04:08:39.168Z,3479.00
2023-04-27T04:09:39.183Z,3468.00
2023-04-27T04:10:39.207Z,3483.00
2023-04-27T04:11:39.200Z,3481.00
2023-04-27T04:12:39.211Z,3467.00
2023-04-27T04:13:39.209Z,3458.00
2023-04-27T04:14:39.289Z,3459.00
2023-04-27T04:15:39.289Z,3470.00
2023-04-27T04:16:39.224Z,3469.00
2023-04-27T04:17:39.301Z,3473.00
2023-04-27T04:18:39.264Z,3469.00
2023-04-27T04:19:39.288Z,3435.00
2023-04-27T04:20:39.289Z,3465.00
2023-04-27T04:21:39.266Z,3445.00
2023-04-27T04:22:39.278Z,3431.00
2023-04-27T04:23:39.305Z,3434.00
2023-04-27T04:24:39.379Z,3430.00
2023-04-27T04:25:39.306Z,3437.00
2023-04-27T04:26:39.323Z,3430.00
2023-04-27T04:27:39.334Z,3385.00
2023-04-27T04:28:39.324Z,3368.00
2023-04-27T04:29:39.341Z,3412.00
2023-04-27T04:30:39.341Z,3370.00
2023-04-27T04:31:39.394Z,3411.00
2023-04-27T04:32:39.400Z,3418.00
2023-04-27T04:33:39.350Z,3418.00
2023-04-27T04:34:39.405Z,3415.00
2023-04-27T04:35:39.365Z,3441.00
2023-04-27T04:36:39.371Z,3445.00
2023-04-27T04:37:39.413Z,3471.00
2023-04-27T04:38:39.390Z,3478.00
2023-04-27T04:39:39.399Z,3491.00
2023-04-27T04:40:39.425Z,3512.00
2023-04-27T04:41:39.439Z,3497.00
2023-04-27T04:42:39.453Z,3510.00
2023-04-27T04:43:39.456Z,3528.00
2023-04-27T04:44:39.510Z,3533.00
2023-04-27T04:45:39.465Z,3525.00
2023-04-27T04:46:39.519Z,3534.00
2023-04-27T04:47:39.668Z,3540.00
2023-04-27T04:48:39.479Z,3554.00
2023-04-27T04:49:39.489Z,3566.00
2023-04-27T04:50:39.521Z,3580.00
2023-04-27T04:51:39.506Z,3584.00
2023-04-27T04:52:39.518Z,3625.00
2023-04-27T04:53:39.501Z,3630.00
2023-04-27T04:54:39.540Z,3639.00
2023-04-27T04:55:39.525Z,3654.00
2023-04-27T04:56:39.525Z,3696.00
2023-04-27T04:57:39.540Z,3639.00
2023-04-27T04:58:39.542Z,3628.00
2023-04-27T04:59:39.561Z,3621.00
2023-04-27T05:00:39.572Z,3653.00
2023-04-27T05:01:39.629Z,3667.00
2023-04-27T05:02:39.685Z,3668.00
2023-04-27T05:03:39.719Z,3683.00
2023-04-27T05:04:39.661Z,3662.00
2023-04-27T05:05:39.596Z,3626.00
2023-04-27T05:06:39.612Z,3620.00
2023-04-27T05:07:39.616Z,3596.00
2023-04-27T05:08:39.614Z,3596.00
2023-04-27T05:09:39.605Z,3601.00
2023-04-27T05:10:39.625Z,3610.00
2023-04-27T05:11:39.629Z,3581.00
2023-04-27T05:12:39.636Z,3593.00
2023-04-27T05:13:39.646Z,3569.00
2023-04-27T05:14:39.662Z,3570.00
2023-04-27T05:15:39.648Z,3605.00
2023-04-27T05:16:39.721Z,3627.00
2023-04-27T05:17:39.692Z,3637.00
2023-04-27T05:18:39.696Z,3631.00
2023-04-27T05:19:39.703Z,3656.00
2023-04-27T05:20:39.697Z,3665.00
2023-04-27T05:21:39.722Z,3661.00
2023-04-27T05:22:39.730Z,3658.00
2023-04-27T05:23:39.729Z,3642.00
2023-04-27T05:24:39.756Z,3641.00
2023-04-27T05:25:40.211Z,3650.00
2023-04-27T05:26:39.779Z,3655.00
2023-04-27T05:27:39.768Z,3655.00
2023-04-27T05:28:39.793Z,3629.00
2023-04-27T05:29:39.781Z,3644.00
2023-04-27T05:30:39.808Z,3665.00
2023-04-27T05:31:39.845Z,3693.00
2023-04-27T05:32:39.824Z,3723.00
2023-04-27T05:33:39.924Z,3787.00
2023-04-27T05:34:39.813Z,3828.00
2023-04-27T05:35:39.869Z,3789.00
2023-04-27T05:36:39.855Z,3697.00
2023-04-27T05:37:40.213Z,3717.00
2023-04-27T05:38:39.901Z,3725.00
2023-04-27T05:39:39.916Z,3905.00
2023-04-27T05:40:40.176Z,4060.00
2023-04-27T05:41:39.995Z,4081.00
2023-04-27T05:42:40.207Z,4108.00
2023-04-27T05:43:40.020Z,4181.00
2023-04-27T05:44:40.023Z,4159.00
2023-04-27T05:45:40.067Z,4135.00
2023-04-27T05:46:40.098Z,4196.00
2023-04-27T05:47:40.193Z,4203.00
2023-04-27T05:48:40.163Z,4244.00
2023-04-27T05:49:40.195Z,4291.00
2023-04-27T05:50:40.187Z,4324.00
2023-04-27T05:51:40.177Z,4357.00
2023-04-27T05:52:40.224Z,4375.00
2023-04-27T05:53:40.314Z,4391.00
2023-04-27T05:54:40.334Z,4436.00
2023-04-27T05:55:40.386Z,4480.00
2023-04-27T05:56:40.517Z,4507.00
2023-04-27T05:57:40.561Z,4582.00
2023-04-27T05:58:40.499Z,4630.00
2023-04-27T05:59:40.504Z,4644.00
2023-04-27T06:00:40.554Z,4635.00
2023-04-27T06:01:40.566Z,4633.00
2023-04-27T06:02:40.646Z,4625.00
2023-04-27T06:03:40.776Z,4642.00
2023-04-27T06:04:40.565Z,4666.00
2023-04-27T06:05:40.817Z,4686.00
2023-04-27T06:06:40.521Z,4724.00
2023-04-27T06:07:40.539Z,4758.00
2023-04-27T06:08:40.568Z,4784.00
2023-04-27T06:09:40.596Z,4814.00
2023-04-27T06:10:40.634Z,4810.00
2023-04-27T06:11:40.695Z,4836.00
2023-04-27T06:12:41.196Z,4898.00
2023-04-27T06:13:40.832Z,4889.00
2023-04-27T06:14:40.842Z,4858.00
2023-04-27T06:15:40.908Z,4895.00
2023-04-27T06:16:40.900Z,4929.00
2023-04-27T06:17:41.018Z,4956.00
2023-04-27T06:18:40.992Z,4986.00
2023-04-27T06:19:41.093Z,5006.00
2023-04-27T06:20:41.089Z,5019.00
2023-04-27T06:21:41.120Z,4987.00
2023-04-27T06:22:41.184Z,4915.00
2023-04-27T06:23:41.272Z,4885.00
2023-04-27T06:24:41.328Z,4876.00
2023-04-27T06:25:41.391Z,4888.00
2023-04-27T06:26:41.435Z,4956.00
2023-04-27T06:27:41.500Z,5000.00
2023-04-27T06:28:41.558Z,5013.00
2023-04-27T06:29:41.599Z,5000.00
2023-04-27T06:30:41.705Z,4990.00
2023-04-27T06:31:41.789Z,4934.00
2023-04-27T06:32:41.841Z,4914.00
2023-04-27T06:33:41.833Z,5152.00
2023-04-27T06:34:41.938Z,5040.00
2023-04-27T06:35:42.519Z,5447.00
2023-04-27T06:36:42.012Z,5574.00
2023-04-27T06:37:42.020Z,5184.00
2023-04-27T06:38:42.086Z,5018.00
2023-04-27T06:39:42.135Z,4963.00
2023-04-27T06:40:42.220Z,4934.00
2023-04-27T06:41:42.245Z,4927.00
2023-04-27T06:42:42.704Z,4953.00
2023-04-27T06:43:42.359Z,4934.00
2023-04-27T06:44:42.408Z,4858.00
2023-04-27T06:45:42.474Z,4809.00
2023-04-27T06:46:42.692Z,4881.00
2023-04-27T06:47:42.720Z,4901.00
2023-04-27T06:48:42.676Z,4859.00
2023-04-27T06:49:42.705Z,4832.00
2023-04-27T06:50:42.753Z,4866.00
2023-04-27T06:51:42.874Z,4920.00
2023-04-27T06:52:42.864Z,4918.00
2023-04-27T06:53:42.921Z,4904.00
2023-04-27T06:54:42.980Z,4900.00
2023-04-27T06:55:45.016Z,4874.00
2023-04-27T06:56:42.990Z,4873.00
2023-04-27T06:57:43.007Z,4846.00
2023-04-27T06:58:42.982Z,4822.00
2023-04-27T06:59:42.994Z,4815.00
2023-04-27T07:00:43.224Z,4821.00
2023-04-27T07:01:43.026Z,4805.00
2023-04-27T07:02:43.054Z,4774.00
2023-04-27T07:03:43.168Z,4736.00
2023-04-27T07:04:42.991Z,4688.00
2023-04-27T07:05:42.969Z,4566.00
2023-04-27T07:06:42.951Z,4583.00
2023-04-27T07:07:42.951Z,4540.00
2023-04-27T07:08:43.251Z,4485.00
2023-04-27T07:09:42.930Z,4524.00
2023-04-27T07:10:42.919Z,4600.00
2023-04-27T07:11:42.916Z,4614.00
2023-04-27T07:12:42.906Z,4630.00
2023-04-27T07:13:42.900Z,4524.00
2023-04-27T07:14:42.888Z,4509.00
2023-04-27T07:15:42.913Z,4424.00
2023-04-27T07:16:42.863Z,4480.00
2023-04-27T07:17:42.923Z,4443.00
2023-04-27T07:18:43.672Z,4433.00
2023-04-27T07:19:42.854Z,4422.00
2023-04-27T07:20:42.850Z,4354.00
2023-04-27T07:21:42.841Z,4362.00
2023-04-27T07:22:42.841Z,4318.00
2023-04-27T07:23:43.262Z,4281.00
2023-04-27T07:24:42.844Z,4236.00
2023-04-27T07:25:42.869Z,4241.00
2023-04-27T07:26:42.792Z,4233.00
2023-04-27T07:27:42.800Z,4259.00
2023-04-27T07:28:43.235Z,4257.00
2023-04-27T07:29:42.764Z,4284.00
2023-04-27T07:30:42.783Z,4292.00
2023-04-27T07:31:42.793Z,4300.00
2023-04-27T07:32:42.792Z,4312.00
2023-04-27T07:33:42.759Z,4293.00
2023-04-27T07:34:52.696Z,4299.00
2023-04-27T07:35:43.754Z,4300.00
2023-04-27T07:36:42.722Z,4299.00
2023-04-27T07:37:42.730Z,4266.00
2023-04-27T07:38:42.725Z,4256.00
2023-04-27T07:39:42.715Z,4232.00
2023-04-27T07:40:44.372Z,4215.00
2023-04-27T07:41:42.693Z,4196.00
2023-04-27T07:42:42.700Z,4149.00
2023-04-27T07:43:42.678Z,4111.00
2023-04-27T07:44:42.723Z,4123.00
2023-04-27T07:45:42.762Z,4121.00
2023-04-27T07:46:42.665Z,4139.00
2023-04-27T07:47:42.720Z,4144.00
2023-04-27T07:48:42.674Z,4131.00
2023-04-27T07:49:42.712Z,4138.00
2023-04-27T07:50:42.775Z,4141.00
2023-04-27T07:51:42.813Z,4175.00
2023-04-27T07:52:42.842Z,4209.00
2023-04-27T07:53:42.875Z,4213.00
2023-04-27T07:54:42.941Z,4218.00
2023-04-27T07:55:42.993Z,4203.00
2023-04-27T07:56:43.024Z,4196.00
2023-04-27T07:57:43.054Z,4181.00
2023-04-27T07:58:43.081Z,4155.00
2023-04-27T07:59:43.136Z,4146.00
2023-04-27T08:00:43.175Z,4130.00
2023-04-27T08:01:43.258Z,4103.00
2023-04-27T08:02:43.468Z,4091.00
2023-04-27T08:03:43.433Z,4076.00
2023-04-27T08:04:43.794Z,4057.00
2023-04-27T08:05:43.850Z,4041.00
2023-04-27T08:06:43.688Z,4015.00
2023-04-27T08:07:44.781Z,4007.00
2023-04-27T08:08:43.755Z,3990.00
2023-04-27T08:09:43.579Z,3974.00
2023-04-27T08:10:43.675Z,3955.00
2023-04-27T08:11:43.686Z,3948.00
2023-04-27T08:12:43.714Z,3926.00
2023-04-27T08:13:43.776Z,3909.00
2023-04-27T08:14:43.814Z,3910.00
2023-04-27T08:15:43.869Z,3886.00
2023-04-27T08:16:43.973Z,3871.00
2023-04-27T08:17:44.011Z,3855.00
2023-04-27T08:18:44.019Z,3834.00
2023-04-27T08:19:44.060Z,3821.00
2023-04-27T08:20:44.083Z,3421.00
2023-04-27T08:21:44.106Z,2714.00
2023-04-27T08:22:44.111Z,2488.00
2023-04-27T08:23:44.097Z,2480.00
2023-04-27T08:24:44.109Z,2383.00
2023-04-27T08:25:44.100Z,2266.00
2023-04-27T08:26:44.089Z,2230.00
2023-04-27T08:27:44.083Z,2337.00
2023-04-27T08:28:44.135Z,2428.00
2023-04-27T08:29:44.146Z,2499.00
2023-04-27T08:30:44.058Z,2466.00
2023-04-27T08:31:44.169Z,2456.00
2023-04-27T08:32:44.041Z,2701.00
2023-04-27T08:33:44.057Z,2776.00
2023-04-27T08:34:44.085Z,2710.00
2023-04-27T08:35:44.105Z,2645.00
2023-04-27T08:36:44.131Z,2794.00
2023-04-27T08:37:44.150Z,2860.00
2023-04-27T08:38:44.179Z,2889.00
2023-04-27T08:39:44.188Z,2987.00
2023-04-27T08:40:44.185Z,3099.00
2023-04-27T08:41:44.275Z,3210.00
2023-04-27T08:42:44.167Z,3342.00
2023-04-27T08:43:44.181Z,3432.00
2023-04-27T08:44:44.242Z,3484.00
2023-04-27T08:45:44.250Z,3545.00
2023-04-27T08:46:44.831Z,3613.00
2023-04-27T08:47:44.306Z,3510.00
2023-04-27T08:48:44.344Z,3540.00
2023-04-27T08:49:44.390Z,3596.00
2023-04-27T08:50:44.450Z,3580.00
2023-04-27T08:51:44.513Z,3629.00
2023-04-27T08:52:44.589Z,3626.00
2023-04-27T08:53:44.789Z,3563.00
2023-04-27T08:54:44.713Z,3515.00
2023-04-27T08:55:44.752Z,3605.00
2023-04-27T08:56:44.827Z,3678.00
2023-04-27T08:57:44.856Z,3723.00
2023-04-27T08:58:45.263Z,3865.00
2023-04-27T08:59:44.930Z,3875.00
2023-04-27T09:00:44.982Z,3954.00
2023-04-27T09:01:45.122Z,3956.00
2023-04-27T09:02:45.180Z,3946.00
2023-04-27T09:03:45.269Z,3917.00
2023-04-27T09:04:45.355Z,3951.00
2023-04-27T09:05:56.398Z,4019.00
2023-04-27T09:06:46.175Z,3692.00
2023-04-27T09:07:45.138Z,4033.00
2023-04-27T09:08:45.155Z,3743.00
2023-04-27T09:09:45.152Z,4045.00
2023-04-27T09:10:45.138Z,3536.00
2023-04-27T09:11:45.127Z,3579.00
2023-04-27T09:12:45.092Z,3457.00
2023-04-27T09:13:45.142Z,3566.00
2023-04-27T09:14:45.121Z,2972.00
2023-04-27T09:15:46.475Z,2660.00
2023-04-27T09:16:45.215Z,2584.00
2023-04-27T09:17:45.109Z,2492.00
2023-04-27T09:18:45.072Z,2559.00
2023-04-27T09:19:45.078Z,2299.00
2023-04-27T09:20:45.043Z,2157.00
2023-04-27T09:21:46.668Z,2065.00
2023-04-27T09:22:45.032Z,1967.00
2023-04-27T09:23:45.027Z,2066.00
2023-04-27T09:24:45.020Z,2058.00
2023-04-27T09:25:45.017Z,2069.00
2023-04-27T09:26:45.004Z,2131.00
2023-04-27T09:27:44.993Z,2159.00
2023-04-27T09:28:45.290Z,1787.00
2023-04-27T09:29:44.991Z,1421.00
2023-04-27T09:30:44.968Z,883.00
2023-04-27T09:31:45.336Z,775.00
2023-04-27T09:32:45.007Z,908.00
2023-04-27T09:33:44.941Z,1157.00
2023-04-27T09:34:44.947Z,1256.00
2023-04-27T09:35:44.921Z,1356.00
2023-04-27T09:36:44.934Z,1582.00
2023-04-27T09:37:44.912Z,1802.00
2023-04-27T09:38:44.917Z,2050.00
2023-04-27T09:39:44.915Z,2137.00
2023-04-27T09:40:44.913Z,2198.00
2023-04-27T09:41:44.909Z,2264.00
2023-04-27T09:42:44.890Z,2260.00
2023-04-27T09:43:44.879Z,2373.00
2023-04-27T09:44:44.888Z,2489.00
2023-04-27T09:45:44.949Z,2492.00
2023-04-27T09:46:44.860Z,2558.00
2023-04-27T09:47:44.870Z,2612.00
2023-04-27T09:48:44.852Z,2686.00
2023-04-27T09:49:45.296Z,2825.00
2023-04-27T09:50:44.839Z,2965.00
2023-04-27T09:51:45.282Z,3147.00
2023-04-27T09:52:44.822Z,3253.00
2023-04-27T09:53:44.798Z,3322.00
2023-04-27T09:54:44.811Z,3457.00
2023-04-27T09:55:44.801Z,3570.00
2023-04-27T09:56:44.798Z,3639.00
2023-04-27T09:57:44.783Z,3627.00
2023-04-27T09:58:44.763Z,3583.00
2023-04-27T09:59:44.808Z,4112.00
2023-04-27T10:00:44.783Z,4053.00
2023-04-27T10:01:44.943Z,4057.00
2023-04-27T10:02:53.082Z,3995.00
2023-04-27T10:03:45.841Z,3996.00
2023-04-27T10:04:44.769Z,3973.00
2023-04-27T10:05:44.711Z,3967.00
2023-04-27T10:06:44.729Z,3979.00
2023-04-27T10:07:44.695Z,3971.00
2023-04-27T10:08:44.697Z,3979.00
2023-04-27T10:09:44.692Z,3856.00
2023-04-27T10:10:44.690Z,3911.00
2023-04-27T10:11:44.680Z,3939.00
2023-04-27T10:12:44.676Z,3931.00
2023-04-27T10:13:44.667Z,3956.00
2023-04-27T10:14:44.650Z,3965.00
2023-04-27T10:15:44.650Z,3918.00
2023-04-27T10:16:44.648Z,3943.00
2023-04-27T10:17:44.708Z,3951.00
2023-04-27T10:18:44.624Z,3939.00
2023-04-27T10:19:44.633Z,4116.00
2023-04-27T10:20:44.613Z,4056.00
2023-04-27T10:21:44.612Z,4028.00
2023-04-27T10:22:44.595Z,3937.00
2023-04-27T10:23:44.605Z,3947.00
2023-04-27T10:24:44.585Z,3886.00
2023-04-27T10:25:44.583Z,3911.00
2023-04-27T10:26:44.575Z,3855.00
2023-04-27T10:27:44.559Z,3885.00
2023-04-27T10:28:44.562Z,3997.00
2023-04-27T10:29:44.548Z,4039.00
2023-04-27T10:30:44.608Z,3973.00
2023-04-27T10:31:44.805Z,3912.00
2023-04-27T10:32:44.568Z,3912.00
2023-04-27T10:33:44.531Z,3868.00
2023-04-27T10:34:44.528Z,4082.00
2023-04-27T10:35:44.532Z,4066.00
2023-04-27T10:36:44.496Z,3955.00
2023-04-27T10:37:44.487Z,3839.00
2023-04-27T10:38:44.495Z,3882.00
2023-04-27T10:39:49.410Z,3991.00
2023-04-27T10:40:45.510Z,3884.00
2023-04-27T10:41:44.524Z,3857.00
2023-04-27T10:42:44.475Z,3811.00
2023-04-27T10:43:44.470Z,4007.00
2023-04-27T10:44:44.486Z,4172.00
2023-04-27T10:45:44.475Z,4100.00
2023-04-27T10:46:44.466Z,4151.00
2023-04-27T10:47:44.487Z,4224.00
2023-04-27T10:48:44.441Z,4268.00
2023-04-27T10:49:44.438Z,4278.00
2023-04-27T10:50:44.446Z,4327.00
2023-04-27T10:51:44.831Z,4168.00
2023-04-27T10:52:44.446Z,4170.00
2023-04-27T10:53:44.401Z,4213.00
2023-04-27T10:54:44.831Z,4234.00
2023-04-27T10:55:44.398Z,4161.00
2023-04-27T10:56:44.814Z,4073.00
2023-04-27T10:57:44.375Z,4105.00
2023-04-27T10:58:49.025Z,4123.00
2023-04-27T10:59:45.379Z,4076.00
2023-04-27T11:00:44.638Z,4105.00
2023-04-27T11:01:44.386Z,4073.00
2023-04-27T11:02:44.396Z,4064.00
2023-04-27T11:03:44.411Z,4172.00
2023-04-27T11:04:44.344Z,4125.00
2023-04-27T11:05:44.328Z,4247.00
2023-04-27T11:06:44.325Z,4049.00
2023-04-27T11:07:44.316Z,4121.00
2023-04-27T11:08:44.311Z,3970.00
2023-04-27T11:09:44.304Z,4063.00
2023-04-27T11:10:44.299Z,4176.00
2023-04-27T11:11:44.338Z,4122.00
2023-04-27T11:12:44.321Z,4009.00
2023-04-27T11:13:44.272Z,4044.00
2023-04-27T11:14:44.290Z,4034.00
2023-04-27T11:15:44.325Z,3890.00
2023-04-27T11:16:44.414Z,3912.00
2023-04-27T11:17:44.300Z,3847.00
2023-04-27T11:18:44.248Z,3899.00
2023-04-27T11:19:44.214Z,3957.00
2023-04-27T11:20:44.250Z,4021.00
2023-04-27T11:21:44.354Z,4080.00
2023-04-27T11:22:44.212Z,4147.00
2023-04-27T11:23:44.209Z,4150.00
2023-04-27T11:24:44.185Z,4156.00
2023-04-27T11:25:44.173Z,4163.00
2023-04-27T11:26:44.185Z,4174.00
2023-04-27T11:27:44.170Z,4142.00
2023-04-27T11:28:44.175Z,4070.00
2023-04-27T11:29:44.151Z,4053.00
2023-04-27T11:30:44.141Z,4003.00
2023-04-27T11:31:44.160Z,3928.00
2023-04-27T11:32:44.170Z,3866.00
2023-04-27T11:33:44.132Z,3882.00
2023-04-27T11:34:44.118Z,3956.00
2023-04-27T11:35:44.110Z,3953.00
2023-04-27T11:36:44.129Z,3939.00
2023-04-27T11:37:44.133Z,3892.00
2023-04-27T11:38:44.164Z,3806.00
2023-04-27T11:39:44.117Z,3831.00
2023-04-27T11:40:44.107Z,3698.00
2023-04-27T11:41:44.139Z,3668.00
2023-04-27T11:42:44.129Z,3666.00
2023-04-27T11:43:44.179Z,3638.00
2023-04-27T11:44:44.160Z,3624.00
2023-04-27T11:45:44.181Z,3568.00
2023-04-27T11:46:44.219Z,3522.00
2023-04-27T11:47:44.193Z,3513.00
2023-04-27T11:48:44.203Z,3449.00
2023-04-27T11:49:44.232Z,3369.00
2023-04-27T11:50:44.237Z,3276.00
2023-04-27T11:51:44.249Z,3191.00
2023-04-27T11:52:44.255Z,3184.00
2023-04-27T11:53:44.272Z,3067.00
2023-04-27T11:54:44.276Z,2880.00
2023-04-27T11:55:44.298Z,2798.00
2023-04-27T11:56:44.310Z,2736.00
2023-04-27T11:57:44.345Z,2698.00
2023-04-27T11:58:46.129Z,2773.00
2023-04-27T11:59:44.349Z,2845.00
2023-04-27T12:00:44.362Z,2797.00
2023-04-27T12:01:44.421Z,2736.00
2023-04-27T12:02:44.762Z,2770.00
2023-04-27T12:03:44.561Z,2760.00
2023-04-27T12:04:44.506Z,2753.00
2023-04-27T12:05:44.506Z,2751.00